sensor_id;sensor_type;location;lat;lon;timestamp;pressure;altitude;pressure_sealevel;temperature;humidity
45813;BME280;31519;45.408;10.962;2023-02-20T00:01:46;101657.84;;;12.26;93.59
45813;BME280;31519;45.408;10.962;2023-02-20T00:04:14;101665.00;;;12.49;92.88
45813;BME280;31519;45.408;10.962;2023-02-20T00:06:43;101660.59;;;12.39;92.92
45813;BME280;31519;45.408;10.962;2023-02-20T00:09:12;101666.00;;;12.34;93.66
45813;BME280;31519;45.408;10.962;2023-02-20T00:11:40;101666.09;;;12.48;92.73
45813;BME280;31519;45.408;10.962;2023-02-20T00:14:09;101664.22;;;12.49;92.43
45813;BME280;31519;45.408;10.962;2023-02-20T00:16:37;101659.00;;;12.38;92.45
45813;BME280;31519;45.408;10.962;2023-02-20T00:19:05;101658.13;;;12.43;92.59
45813;BME280;31519;45.408;10.962;2023-02-20T00:21:33;101666.09;;;12.48;92.48
45813;BME280;31519;45.408;10.962;2023-02-20T00:24:02;101673.97;;;12.39;92.57
45813;BME280;31519;45.408;10.962;2023-02-20T00:26:30;101673.00;;;12.30;93.30
45813;BME280;31519;45.408;10.962;2023-02-20T00:28:59;101666.06;;;12.29;93.62
45813;BME280;31519;45.408;10.962;2023-02-20T00:31:27;101670.75;;;12.19;94.08
45813;BME280;31519;45.408;10.962;2023-02-20T00:33:55;101672.00;;;12.26;93.57
45813;BME280;31519;45.408;10.962;2023-02-20T00:36:23;101674.28;;;12.33;93.45
45813;BME280;31519;45.408;10.962;2023-02-20T00:38:51;101681.75;;;12.36;93.02
45813;BME280;31519;45.408;10.962;2023-02-20T00:41:19;101679.09;;;12.36;92.95
45813;BME280;31519;45.408;10.962;2023-02-20T00:43:49;101674.69;;;12.45;92.37
45813;BME280;31519;45.408;10.962;2023-02-20T00:46:16;101676.91;;;12.38;92.71
45813;BME280;31519;45.408;10.962;2023-02-20T00:48:45;101682.13;;;12.48;92.21
45813;BME280;31519;45.408;10.962;2023-02-20T00:51:32;101684.38;;;12.41;92.65
45813;BME280;31519;45.408;10.962;2023-02-20T00:54:02;101690.22;;;12.19;93.51
45813;BME280;31519;45.408;10.962;2023-02-20T00:56:30;101686.47;;;12.44;92.71
45813;BME280;31519;45.408;10.962;2023-02-20T00:58:59;101679.81;;;12.41;92.35
45813;BME280;31519;45.408;10.962;2023-02-20T01:01:27;101680.81;;;12.27;93.23
45813;BME280;31519;45.408;10.962;2023-02-20T01:03:55;101684.53;;;12.26;93.40
45813;BME280;31519;45.408;10.962;2023-02-20T01:06:23;101680.53;;;12.47;92.39
45813;BME280;31519;45.408;10.962;2023-02-20T01:08:51;101672.16;;;12.35;92.64
45813;BME280;31519;45.408;10.962;2023-02-20T01:11:21;101680.75;;;12.32;93.48
45813;BME280;31519;45.408;10.962;2023-02-20T01:13:49;101681.59;;;12.27;93.20
45813;BME280;31519;45.408;10.962;2023-02-20T01:16:18;101684.75;;;12.29;92.72
45813;BME280;31519;45.408;10.962;2023-02-20T01:18:49;101677.69;;;12.38;92.16
45813;BME280;31519;45.408;10.962;2023-02-20T01:21:17;101683.19;;;12.47;92.03
45813;BME280;31519;45.408;10.962;2023-02-20T01:23:46;101678.50;;;12.39;92.20
45813;BME280;31519;45.408;10.962;2023-02-20T01:26:14;101675.34;;;12.37;92.13
45813;BME280;31519;45.408;10.962;2023-02-20T01:28:45;101673.09;;;12.44;91.85
45813;BME280;31519;45.408;10.962;2023-02-20T01:31:15;101677.91;;;12.42;91.53
45813;BME280;31519;45.408;10.962;2023-02-20T01:33:43;101675.25;;;12.42;91.89
45813;BME280;31519;45.408;10.962;2023-02-20T01:36:12;101670.50;;;12.39;91.28
45813;BME280;31519;45.408;10.962;2023-02-20T01:38:41;101670.59;;;12.29;92.25
45813;BME280;31519;45.408;10.962;2023-02-20T01:41:10;101661.03;;;12.28;92.00
45813;BME280;31519;45.408;10.962;2023-02-20T01:43:40;101661.19;;;12.36;91.47
45813;BME280;31519;45.408;10.962;2023-02-20T01:49:09;101666.53;;;12.36;90.33
45813;BME280;31519;45.408;10.962;2023-02-20T01:51:44;101676.56;;;12.44;90.40
45813;BME280;31519;45.408;10.962;2023-02-20T01:54:16;101673.16;;;12.39;90.81
45813;BME280;31519;45.408;10.962;2023-02-20T01:56:46;101668.69;;;12.53;90.14
45813;BME280;31519;45.408;10.962;2023-02-20T01:59:16;101678.88;;;12.32;90.90
45813;BME280;31519;45.408;10.962;2023-02-20T02:01:45;101681.44;;;12.37;91.70
45813;BME280;31519;45.408;10.962;2023-02-20T02:04:13;101685.50;;;12.35;91.25
45813;BME280;31519;45.408;10.962;2023-02-20T02:06:45;101701.41;;;12.45;90.60
45813;BME280;31519;45.408;10.962;2023-02-20T02:09:33;101697.56;;;12.51;89.99
45813;BME280;31519;45.408;10.962;2023-02-20T02:12:04;101703.78;;;12.28;91.29
45813;BME280;31519;45.408;10.962;2023-02-20T02:14:32;101713.06;;;12.54;90.07
45813;BME280;31519;45.408;10.962;2023-02-20T02:25:49;101706.78;;;12.21;91.27
45813;BME280;31519;45.408;10.962;2023-02-20T02:28:30;101709.84;;;12.10;91.87
45813;BME280;31519;45.408;10.962;2023-02-20T02:39:46;101702.38;;;12.30;91.13
45813;BME280;31519;45.408;10.962;2023-02-20T02:45:17;101714.72;;;12.26;91.04
45813;BME280;31519;45.408;10.962;2023-02-20T02:50:36;101714.69;;;12.31;90.55
45813;BME280;31519;45.408;10.962;2023-02-20T02:53:08;101718.09;;;12.37;89.95
45813;BME280;31519;45.408;10.962;2023-02-20T02:55:37;101723.94;;;12.15;91.42
45813;BME280;31519;45.408;10.962;2023-02-20T02:58:06;101720.03;;;12.31;90.87
45813;BME280;31519;45.408;10.962;2023-02-20T03:03:15;101718.63;;;12.34;89.69
45813;BME280;31519;45.408;10.962;2023-02-20T03:08:53;101715.38;;;12.18;90.66
45813;BME280;31519;45.408;10.962;2023-02-20T03:11:26;101722.97;;;12.06;91.51
45813;BME280;31519;45.408;10.962;2023-02-20T03:19:51;101737.06;;;12.35;89.85
45813;BME280;31519;45.408;10.962;2023-02-20T03:22:24;101735.38;;;12.21;90.42
45813;BME280;31519;45.408;10.962;2023-02-20T03:25:00;101737.00;;;12.17;90.26
45813;BME280;31519;45.408;10.962;2023-02-20T03:27:45;101731.09;;;12.20;90.54
45813;BME280;31519;45.408;10.962;2023-02-20T03:31:02;101733.41;;;12.03;91.28
45813;BME280;31519;45.408;10.962;2023-02-20T03:33:11;101735.03;;;12.04;91.92
45813;BME280;31519;45.408;10.962;2023-02-20T03:35:59;101736.31;;;12.06;91.74
45813;BME280;31519;45.408;10.962;2023-02-20T03:38:54;101747.78;;;12.07;91.60
45813;BME280;31519;45.408;10.962;2023-02-20T03:41:44;101743.88;;;12.47;89.56
45813;BME280;31519;45.408;10.962;2023-02-20T03:44:34;101737.56;;;12.37;89.51
45813;BME280;31519;45.408;10.962;2023-02-20T03:47:06;101742.75;;;12.29;89.89
45813;BME280;31519;45.408;10.962;2023-02-20T03:49:39;101738.50;;;12.28;89.64
45813;BME280;31519;45.408;10.962;2023-02-20T03:52:12;101736.53;;;12.33;89.14
45813;BME280;31519;45.408;10.962;2023-02-20T03:54:41;101736.16;;;12.21;89.93
45813;BME280;31519;45.408;10.962;2023-02-20T03:57:12;101746.56;;;11.99;90.54
45813;BME280;31519;45.408;10.962;2023-02-20T03:59:51;101745.69;;;12.04;90.17
45813;BME280;31519;45.408;10.962;2023-02-20T04:02:34;101750.81;;;12.00;90.80
45813;BME280;31519;45.408;10.962;2023-02-20T04:05:09;101755.81;;;12.07;90.64
45813;BME280;31519;45.408;10.962;2023-02-20T04:08:10;101766.84;;;12.24;89.87
45813;BME280;31519;45.408;10.962;2023-02-20T04:10:51;101769.13;;;12.12;89.97
45813;BME280;31519;45.408;10.962;2023-02-20T04:13:23;101779.63;;;12.03;90.62
45813;BME280;31519;45.408;10.962;2023-02-20T04:15:58;101775.22;;;11.88;91.58
45813;BME280;31519;45.408;10.962;2023-02-20T04:18:30;101770.75;;;11.79;92.54
45813;BME280;31519;45.408;10.962;2023-02-20T04:21:05;101779.78;;;11.83;91.93
45813;BME280;31519;45.408;10.962;2023-02-20T04:23:41;101779.94;;;11.96;91.71
45813;BME280;31519;45.408;10.962;2023-02-20T04:26:19;101783.75;;;11.90;91.70
45813;BME280;31519;45.408;10.962;2023-02-20T04:28:50;101779.56;;;11.79;92.31
45813;BME280;31519;45.408;10.962;2023-02-20T04:31:20;101790.53;;;12.07;91.23
45813;BME280;31519;45.408;10.962;2023-02-20T04:33:50;101797.59;;;11.92;91.45
45813;BME280;31519;45.408;10.962;2023-02-20T04:36:22;101790.38;;;11.93;91.55
45813;BME280;31519;45.408;10.962;2023-02-20T04:38:52;101785.94;;;11.83;92.05
45813;BME280;31519;45.408;10.962;2023-02-20T04:41:25;101784.44;;;12.01;91.38
45813;BME280;31519;45.408;10.962;2023-02-20T04:43:54;101787.41;;;11.99;91.07
45813;BME280;31519;45.408;10.962;2023-02-20T04:46:43;101786.69;;;11.89;91.65
45813;BME280;31519;45.408;10.962;2023-02-20T04:49:12;101794.97;;;11.87;91.65
45813;BME280;31519;45.408;10.962;2023-02-20T04:51:41;101795.47;;;11.94;91.59
45813;BME280;31519;45.408;10.962;2023-02-20T04:54:10;101802.50;;;12.14;91.12
45813;BME280;31519;45.408;10.962;2023-02-20T04:56:38;101802.75;;;12.13;90.52
45813;BME280;31519;45.408;10.962;2023-02-20T04:59:09;101804.13;;;12.34;89.49
45813;BME280;31519;45.408;10.962;2023-02-20T05:01:38;101802.53;;;12.09;89.93
45813;BME280;31519;45.408;10.962;2023-02-20T05:04:06;101806.91;;;12.00;91.21
45813;BME280;31519;45.408;10.962;2023-02-20T05:06:43;101804.91;;;12.11;90.76
45813;BME280;31519;45.408;10.962;2023-02-20T05:09:12;101803.34;;;12.10;90.30
45813;BME280;31519;45.408;10.962;2023-02-20T05:11:41;101806.78;;;12.10;89.67
45813;BME280;31519;45.408;10.962;2023-02-20T05:14:09;101812.41;;;12.09;89.91
45813;BME280;31519;45.408;10.962;2023-02-20T05:16:38;101815.25;;;11.88;91.11
45813;BME280;31519;45.408;10.962;2023-02-20T05:19:07;101818.84;;;12.08;90.57
45813;BME280;31519;45.408;10.962;2023-02-20T05:21:35;101807.97;;;11.99;91.02
45813;BME280;31519;45.408;10.962;2023-02-20T05:24:21;101807.69;;;12.01;90.50
45813;BME280;31519;45.408;10.962;2023-02-20T05:26:51;101809.69;;;11.85;91.55
45813;BME280;31519;45.408;10.962;2023-02-20T05:29:20;101807.75;;;11.95;91.67
45813;BME280;31519;45.408;10.962;2023-02-20T05:31:48;101808.88;;;11.84;91.94
45813;BME280;31519;45.408;10.962;2023-02-20T05:34:17;101816.38;;;11.82;92.46
45813;BME280;31519;45.408;10.962;2023-02-20T05:36:47;101827.03;;;12.16;90.60
45813;BME280;31519;45.408;10.962;2023-02-20T05:39:16;101817.38;;;11.91;91.73
45813;BME280;31519;45.408;10.962;2023-02-20T05:41:44;101818.50;;;11.85;92.16
45813;BME280;31519;45.408;10.962;2023-02-20T05:44:12;101818.38;;;12.01;91.30
45813;BME280;31519;45.408;10.962;2023-02-20T05:46:41;101818.47;;;11.90;91.65
45813;BME280;31519;45.408;10.962;2023-02-20T05:49:10;101807.84;;;12.14;90.71
45813;BME280;31519;45.408;10.962;2023-02-20T05:51:38;101816.34;;;12.16;90.41
45813;BME280;31519;45.408;10.962;2023-02-20T05:54:06;101812.47;;;12.04;90.84
45813;BME280;31519;45.408;10.962;2023-02-20T05:56:34;101818.66;;;11.99;91.14
45813;BME280;31519;45.408;10.962;2023-02-20T05:59:03;101819.91;;;12.07;90.65
45813;BME280;31519;45.408;10.962;2023-02-20T06:01:31;101820.25;;;12.00;91.64
45813;BME280;31519;45.408;10.962;2023-02-20T06:03:59;101816.28;;;11.92;91.72
45813;BME280;31519;45.408;10.962;2023-02-20T06:06:40;101831.63;;;11.82;92.59
45813;BME280;31519;45.408;10.962;2023-02-20T06:09:10;101821.59;;;11.97;92.01
45813;BME280;31519;45.408;10.962;2023-02-20T06:11:39;101827.50;;;11.94;92.10
45813;BME280;31519;45.408;10.962;2023-02-20T06:14:07;101835.94;;;12.07;91.25
45813;BME280;31519;45.408;10.962;2023-02-20T06:16:35;101834.81;;;12.13;91.35
45813;BME280;31519;45.408;10.962;2023-02-20T06:19:04;101841.22;;;12.12;90.86
45813;BME280;31519;45.408;10.962;2023-02-20T06:21:33;101845.09;;;12.24;90.32
45813;BME280;31519;45.408;10.962;2023-02-20T06:24:03;101841.28;;;12.07;90.84
45813;BME280;31519;45.408;10.962;2023-02-20T06:26:31;101848.13;;;12.18;90.35
45813;BME280;31519;45.408;10.962;2023-02-20T06:28:59;101854.44;;;12.27;90.04
45813;BME280;31519;45.408;10.962;2023-02-20T06:31:27;101855.94;;;12.09;90.23
45813;BME280;31519;45.408;10.962;2023-02-20T06:33:55;101855.91;;;12.14;89.96
45813;BME280;31519;45.408;10.962;2023-02-20T06:36:26;101861.25;;;12.14;89.19
45813;BME280;31519;45.408;10.962;2023-02-20T06:38:56;101860.16;;;12.15;89.38
45813;BME280;31519;45.408;10.962;2023-02-20T06:41:25;101864.16;;;12.18;89.41
45813;BME280;31519;45.408;10.962;2023-02-20T06:43:54;101864.19;;;12.13;89.07
45813;BME280;31519;45.408;10.962;2023-02-20T06:46:22;101866.25;;;12.21;89.21
45813;BME280;31519;45.408;10.962;2023-02-20T06:48:53;101869.50;;;12.18;88.47
45813;BME280;31519;45.408;10.962;2023-02-20T06:51:24;101872.16;;;12.18;88.90
45813;BME280;31519;45.408;10.962;2023-02-20T06:53:53;101884.81;;;12.07;88.75
45813;BME280;31519;45.408;10.962;2023-02-20T06:56:28;101882.75;;;12.28;87.72
45813;BME280;31519;45.408;10.962;2023-02-20T06:58:57;101905.03;;;12.18;88.27
45813;BME280;31519;45.408;10.962;2023-02-20T07:01:27;101912.56;;;12.06;89.33
45813;BME280;31519;45.408;10.962;2023-02-20T07:03:57;101904.34;;;12.03;89.76
45813;BME280;31519;45.408;10.962;2023-02-20T07:06:25;101906.97;;;12.08;89.42
45813;BME280;31519;45.408;10.962;2023-02-20T07:08:54;101910.03;;;12.25;88.58
45813;BME280;31519;45.408;10.962;2023-02-20T07:11:22;101908.91;;;12.31;88.22
45813;BME280;31519;45.408;10.962;2023-02-20T07:13:51;101911.00;;;12.34;87.60
45813;BME280;31519;45.408;10.962;2023-02-20T07:16:19;101899.47;;;12.38;86.64
45813;BME280;31519;45.408;10.962;2023-02-20T07:18:47;101909.84;;;12.45;86.00
45813;BME280;31519;45.408;10.962;2023-02-20T07:21:15;101902.59;;;12.51;85.60
45813;BME280;31519;45.408;10.962;2023-02-20T07:23:44;101895.50;;;12.36;86.36
45813;BME280;31519;45.408;10.962;2023-02-20T07:26:24;101896.06;;;12.33;86.61
45813;BME280;31519;45.408;10.962;2023-02-20T07:28:53;101900.38;;;12.29;86.61
45813;BME280;31519;45.408;10.962;2023-02-20T07:31:21;101903.75;;;12.39;86.06
45813;BME280;31519;45.408;10.962;2023-02-20T07:33:50;101903.97;;;12.43;85.44
45813;BME280;31519;45.408;10.962;2023-02-20T07:36:18;101904.31;;;12.36;85.83
45813;BME280;31519;45.408;10.962;2023-02-20T07:38:58;101905.00;;;12.47;85.83
45813;BME280;31519;45.408;10.962;2023-02-20T07:41:28;101909.28;;;12.48;84.99
45813;BME280;31519;45.408;10.962;2023-02-20T07:43:58;101917.81;;;12.21;85.83
45813;BME280;31519;45.408;10.962;2023-02-20T07:46:26;101918.91;;;12.49;85.52
45813;BME280;31519;45.408;10.962;2023-02-20T07:48:55;101914.31;;;12.55;85.30
45813;BME280;31519;45.408;10.962;2023-02-20T07:51:22;101910.03;;;12.54;85.19
45813;BME280;31519;45.408;10.962;2023-02-20T07:53:51;101904.28;;;12.65;84.83
45813;BME280;31519;45.408;10.962;2023-02-20T07:56:21;101909.16;;;12.63;84.77
45813;BME280;31519;45.408;10.962;2023-02-20T07:58:50;101909.84;;;12.74;84.87
45813;BME280;31519;45.408;10.962;2023-02-20T08:01:19;101905.47;;;12.83;84.20
45813;BME280;31519;45.408;10.962;2023-02-20T08:03:47;101909.00;;;12.78;84.21
45813;BME280;31519;45.408;10.962;2023-02-20T08:06:17;101904.81;;;12.67;84.40
45813;BME280;31519;45.408;10.962;2023-02-20T08:08:49;101907.66;;;12.76;83.97
45813;BME280;31519;45.408;10.962;2023-02-20T08:11:18;101909.03;;;12.73;83.83
45813;BME280;31519;45.408;10.962;2023-02-20T08:13:47;101905.63;;;12.68;83.85
45813;BME280;31519;45.408;10.962;2023-02-20T08:16:15;101917.25;;;12.82;83.59
45813;BME280;31519;45.408;10.962;2023-02-20T08:18:44;101913.97;;;12.61;84.36
45813;BME280;31519;45.408;10.962;2023-02-20T08:21:13;101914.94;;;12.94;83.23
45813;BME280;31519;45.408;10.962;2023-02-20T08:23:41;101923.44;;;12.77;82.75
45813;BME280;31519;45.408;10.962;2023-02-20T08:26:09;101928.16;;;12.85;82.77
45813;BME280;31519;45.408;10.962;2023-02-20T08:28:38;101923.72;;;13.00;82.14
45813;BME280;31519;45.408;10.962;2023-02-20T08:31:06;101924.00;;;12.98;80.67
45813;BME280;31519;45.408;10.962;2023-02-20T08:33:35;101924.06;;;12.69;82.29
45813;BME280;31519;45.408;10.962;2023-02-20T08:36:03;101928.59;;;12.69;82.91
45813;BME280;31519;45.408;10.962;2023-02-20T08:38:34;101938.69;;;13.01;81.92
45813;BME280;31519;45.408;10.962;2023-02-20T08:41:08;101928.91;;;12.91;82.46
45813;BME280;31519;45.408;10.962;2023-02-20T08:43:39;101935.50;;;12.99;81.90
45813;BME280;31519;45.408;10.962;2023-02-20T08:46:07;101931.34;;;13.11;80.96
45813;BME280;31519;45.408;10.962;2023-02-20T08:48:35;101934.56;;;13.13;79.58
45813;BME280;31519;45.408;10.962;2023-02-20T08:51:04;101942.47;;;13.23;79.35
45813;BME280;31519;45.408;10.962;2023-02-20T08:53:36;101941.19;;;13.40;78.38
45813;BME280;31519;45.408;10.962;2023-02-20T08:56:05;101947.88;;;13.42;78.19
45813;BME280;31519;45.408;10.962;2023-02-20T08:58:33;101939.53;;;13.20;78.98
45813;BME280;31519;45.408;10.962;2023-02-20T09:01:01;101944.75;;;13.54;77.90
45813;BME280;31519;45.408;10.962;2023-02-20T09:03:30;101938.03;;;13.56;77.43
45813;BME280;31519;45.408;10.962;2023-02-20T09:05:57;101942.44;;;13.66;76.88
45813;BME280;31519;45.408;10.962;2023-02-20T09:08:26;101940.56;;;13.66;76.82
45813;BME280;31519;45.408;10.962;2023-02-20T09:10:54;101936.53;;;13.88;76.49
45813;BME280;31519;45.408;10.962;2023-02-20T09:13:27;101925.06;;;13.82;75.74
45813;BME280;31519;45.408;10.962;2023-02-20T09:15:55;101936.56;;;14.01;75.50
45813;BME280;31519;45.408;10.962;2023-02-20T09:18:23;101936.44;;;13.93;76.03
45813;BME280;31519;45.408;10.962;2023-02-20T09:20:52;101934.78;;;13.97;75.79
45813;BME280;31519;45.408;10.962;2023-02-20T09:23:20;101937.56;;;14.24;75.01
45813;BME280;31519;45.408;10.962;2023-02-20T09:25:51;101949.84;;;14.44;74.62
45813;BME280;31519;45.408;10.962;2023-02-20T09:28:21;101947.59;;;14.51;74.58
45813;BME280;31519;45.408;10.962;2023-02-20T09:30:49;101941.25;;;14.60;73.70
45813;BME280;31519;45.408;10.962;2023-02-20T09:33:22;101944.44;;;14.76;73.45
45813;BME280;31519;45.408;10.962;2023-02-20T09:35:51;101933.69;;;14.62;73.29
45813;BME280;31519;45.408;10.962;2023-02-20T09:38:22;101942.66;;;14.85;72.35
45813;BME280;31519;45.408;10.962;2023-02-20T09:40:56;101933.13;;;14.79;72.86
45813;BME280;31519;45.408;10.962;2023-02-20T09:49:17;101926.13;;;15.46;70.46
45813;BME280;31519;45.408;10.962;2023-02-20T09:51:52;101928.59;;;15.92;69.20
45813;BME280;31519;45.408;10.962;2023-02-20T09:54:27;101915.63;;;16.08;68.03
45813;BME280;31519;45.408;10.962;2023-02-20T09:57:03;101910.72;;;16.41;66.81
45813;BME280;31519;45.408;10.962;2023-02-20T09:59:40;101913.66;;;16.53;65.93
45813;BME280;31519;45.408;10.962;2023-02-20T10:04:57;101918.25;;;16.53;65.40
45813;BME280;31519;45.408;10.962;2023-02-20T10:07:34;101915.06;;;16.51;65.25
45813;BME280;31519;45.408;10.962;2023-02-20T10:23:49;101909.53;;;18.12;55.08
45813;BME280;31519;45.408;10.962;2023-02-20T10:26:36;101904.19;;;18.50;53.47
45813;BME280;31519;45.408;10.962;2023-02-20T10:29:39;101890.16;;;18.74;52.27
45813;BME280;31519;45.408;10.962;2023-02-20T10:35:15;101896.53;;;18.05;53.71
45813;BME280;31519;45.408;10.962;2023-02-20T10:37:50;101897.75;;;18.25;52.20
45813;BME280;31519;45.408;10.962;2023-02-20T10:40:37;101891.63;;;19.21;51.26
45813;BME280;31519;45.408;10.962;2023-02-20T10:48:12;101879.91;;;19.38;47.92
45813;BME280;31519;45.408;10.962;2023-02-20T10:50:49;101874.88;;;20.35;46.49
45813;BME280;31519;45.408;10.962;2023-02-20T10:53:27;101866.94;;;19.31;49.51
45813;BME280;31519;45.408;10.962;2023-02-20T10:56:29;101862.22;;;19.82;48.70
45813;BME280;31519;45.408;10.962;2023-02-20T10:59:15;101861.31;;;19.16;50.29
45813;BME280;31519;45.408;10.962;2023-02-20T11:01:50;101862.31;;;20.18;48.55
45813;BME280;31519;45.408;10.962;2023-02-20T11:04:25;101852.25;;;20.52;47.66
45813;BME280;31519;45.408;10.962;2023-02-20T11:07:11;101857.56;;;19.08;50.58
45813;BME280;31519;45.408;10.962;2023-02-20T11:09:41;101860.34;;;19.95;49.94
45813;BME280;31519;45.408;10.962;2023-02-20T11:12:57;101853.25;;;20.84;47.55
45813;BME280;31519;45.408;10.962;2023-02-20T11:15:29;101851.06;;;20.28;47.94
45813;BME280;31519;45.408;10.962;2023-02-20T11:18:00;101852.41;;;19.77;49.27
45813;BME280;31519;45.408;10.962;2023-02-20T11:23:00;101825.41;;;20.34;48.59
45813;BME280;31519;45.408;10.962;2023-02-20T11:25:36;101819.00;;;20.39;48.13
45813;BME280;31519;45.408;10.962;2023-02-20T11:30:47;101810.22;;;18.61;52.68
45813;BME280;31519;45.408;10.962;2023-02-20T11:35:52;101799.53;;;19.68;50.23
45813;BME280;31519;45.408;10.962;2023-02-20T11:43:34;101799.53;;;18.26;52.43
45813;BME280;31519;45.408;10.962;2023-02-20T11:46:21;101795.16;;;18.42;52.22
45813;BME280;31519;45.408;10.962;2023-02-20T11:51:37;101786.44;;;18.45;53.04
45813;BME280;31519;45.408;10.962;2023-02-20T11:57:03;101777.84;;;19.02;51.26
45813;BME280;31519;45.408;10.962;2023-02-20T11:59:37;101780.00;;;18.67;52.11
45813;BME280;31519;45.408;10.962;2023-02-20T12:05:13;101777.66;;;18.57;53.02
45813;BME280;31519;45.408;10.962;2023-02-20T12:10:30;101770.94;;;18.34;52.74
45813;BME280;31519;45.408;10.962;2023-02-20T12:13:02;101766.88;;;17.55;54.96
45813;BME280;31519;45.408;10.962;2023-02-20T12:15:30;101768.06;;;18.09;53.65
45813;BME280;31519;45.408;10.962;2023-02-20T12:20:40;101768.28;;;18.25;53.03
45813;BME280;31519;45.408;10.962;2023-02-20T12:23:50;101766.00;;;19.15;50.46
45813;BME280;31519;45.408;10.962;2023-02-20T12:34:57;101742.44;;;21.31;43.82
45813;BME280;31519;45.408;10.962;2023-02-20T12:47:41;101730.84;;;20.78;44.72
45813;BME280;31519;45.408;10.962;2023-02-20T12:50:33;101726.66;;;21.20;43.64
45813;BME280;31519;45.408;10.962;2023-02-20T12:59:09;101710.38;;;20.16;45.21
45813;BME280;31519;45.408;10.962;2023-02-20T13:01:44;101698.97;;;20.23;45.34
45813;BME280;31519;45.408;10.962;2023-02-20T13:04:29;101701.88;;;20.54;45.05
45813;BME280;31519;45.408;10.962;2023-02-20T13:07:06;101697.75;;;20.08;45.63
45813;BME280;31519;45.408;10.962;2023-02-20T13:09:45;101693.53;;;19.62;45.79
45813;BME280;31519;45.408;10.962;2023-02-20T13:12:19;101695.72;;;19.81;45.96
45813;BME280;31519;45.408;10.962;2023-02-20T13:15:18;101695.50;;;19.98;45.51
45813;BME280;31519;45.408;10.962;2023-02-20T13:17:55;101690.00;;;19.37;46.57
45813;BME280;31519;45.408;10.962;2023-02-20T13:20:27;101686.44;;;18.92;47.70
45813;BME280;31519;45.408;10.962;2023-02-20T13:25:41;101674.56;;;19.38;46.56
45813;BME280;31519;45.408;10.962;2023-02-20T13:31:07;101675.97;;;19.56;46.83
45813;BME280;31519;45.408;10.962;2023-02-20T13:33:36;101656.13;;;18.74;49.54
45813;BME280;31519;45.408;10.962;2023-02-20T13:36:52;101664.56;;;19.06;48.59
45813;BME280;31519;45.408;10.962;2023-02-20T13:44:39;101651.28;;;19.45;47.23
45813;BME280;31519;45.408;10.962;2023-02-20T13:49:55;101661.00;;;17.72;52.70
45813;BME280;31519;45.408;10.962;2023-02-20T14:00:40;101644.94;;;18.34;52.34
45813;BME280;31519;45.408;10.962;2023-02-20T14:06:12;101644.13;;;18.13;54.20
45813;BME280;31519;45.408;10.962;2023-02-20T14:08:46;101643.03;;;18.14;54.05
45813;BME280;31519;45.408;10.962;2023-02-20T14:11:33;101635.41;;;17.40;55.93
45813;BME280;31519;45.408;10.962;2023-02-20T14:14:13;101633.50;;;17.87;54.82
45813;BME280;31519;45.408;10.962;2023-02-20T14:16:49;101633.78;;;18.24;53.89
45813;BME280;31519;45.408;10.962;2023-02-20T14:19:23;101634.44;;;18.62;52.74
45813;BME280;31519;45.408;10.962;2023-02-20T14:21:53;101629.44;;;18.73;52.37
45813;BME280;31519;45.408;10.962;2023-02-20T14:24:26;101620.16;;;19.15;50.88
45813;BME280;31519;45.408;10.962;2023-02-20T14:26:55;101627.88;;;19.50;50.00
45813;BME280;31519;45.408;10.962;2023-02-20T14:29:31;101637.91;;;19.16;50.59
45813;BME280;31519;45.408;10.962;2023-02-20T14:32:02;101629.34;;;19.71;48.95
45813;BME280;31519;45.408;10.962;2023-02-20T14:34:51;101619.88;;;19.53;49.01
45813;BME280;31519;45.408;10.962;2023-02-20T14:37:51;101624.59;;;20.05;47.96
45813;BME280;31519;45.408;10.962;2023-02-20T14:43:19;101617.44;;;19.60;48.32
45813;BME280;31519;45.408;10.962;2023-02-20T14:46:12;101607.59;;;20.04;47.37
45813;BME280;31519;45.408;10.962;2023-02-20T14:48:43;101615.31;;;20.42;46.70
45813;BME280;31519;45.408;10.962;2023-02-20T14:51:14;101605.06;;;20.75;46.04
45813;BME280;31519;45.408;10.962;2023-02-20T14:53:44;101604.69;;;20.49;46.06
45813;BME280;31519;45.408;10.962;2023-02-20T14:56:23;101607.34;;;20.33;46.08
45813;BME280;31519;45.408;10.962;2023-02-20T14:58:51;101610.44;;;19.71;46.65
45813;BME280;31519;45.408;10.962;2023-02-20T15:04:02;101606.09;;;20.87;44.35
45813;BME280;31519;45.408;10.962;2023-02-20T15:06:35;101600.34;;;20.88;44.54
45813;BME280;31519;45.408;10.962;2023-02-20T15:09:05;101602.59;;;20.18;45.68
45813;BME280;31519;45.408;10.962;2023-02-20T15:11:51;101593.13;;;20.64;45.15
45813;BME280;31519;45.408;10.962;2023-02-20T15:14:24;101589.56;;;21.66;43.56
45813;BME280;31519;45.408;10.962;2023-02-20T15:19:40;101602.84;;;22.22;41.87
45813;BME280;31519;45.408;10.962;2023-02-20T15:22:30;101596.88;;;23.13;40.23
45813;BME280;31519;45.408;10.962;2023-02-20T15:25:27;101605.53;;;22.03;41.39
45813;BME280;31519;45.408;10.962;2023-02-20T15:30:32;101598.72;;;21.93;41.80
45813;BME280;31519;45.408;10.962;2023-02-20T15:33:01;101593.44;;;21.34;42.61
45813;BME280;31519;45.408;10.962;2023-02-20T15:35:30;101589.47;;;20.72;44.05
45813;BME280;31519;45.408;10.962;2023-02-20T15:38:01;101588.28;;;20.86;44.02
45813;BME280;31519;45.408;10.962;2023-02-20T15:40:32;101592.25;;;20.60;44.54
45813;BME280;31519;45.408;10.962;2023-02-20T15:43:00;101587.00;;;20.40;44.64
45813;BME280;31519;45.408;10.962;2023-02-20T15:45:35;101583.66;;;20.58;44.79